Time;durP1;ratioP1;P1;durP2;ratioP2;P2;SDS_P1;SDS_P2;PMS_P1;PMS_P2;Temp;Humidity;BMP_temperature;BMP_pressure;BME280_temperature;BME280_humidity;BME280_pressure;Samples;Min_cycle;Max_cycle;Signal;HPM_P1;HPM_P2
2022/07/30 00:00:39;;;;;;;3.20;2.90;;;;;;;21.86;100.00;96359.56;5050019;28;20056;-50
2022/07/30 00:03:07;;;;;;;4.97;3.20;;;;;;;21.74;100.00;96361.31;5050117;28;20092;-50
2022/07/30 00:05:36;;;;;;;4.20;2.97;;;;;;;21.80;100.00;96365.81;5046654;28;20083;-56
2022/07/30 00:08:04;;;;;;;4.07;3.17;;;;;;;21.93;100.00;96360.34;5043694;28;20604;-47
2022/07/30 00:10:33;;;;;;;4.07;3.15;;;;;;;21.55;100.00;96352.34;5043395;28;20073;-48
2022/07/30 00:13:01;;;;;;;5.03;2.65;;;;;;;22.05;100.00;96353.22;5044130;28;20096;-47
2022/07/30 00:15:30;;;;;;;4.68;2.80;;;;;;;21.68;100.00;96352.28;5044970;28;20085;-46
2022/07/30 00:17:59;;;;;;;4.32;2.90;;;;;;;21.60;100.00;96347.16;5043640;28;20167;-51
2022/07/30 00:20:28;;;;;;;3.45;2.50;;;;;;;21.45;100.00;96338.59;5043086;28;20080;-55
2022/07/30 00:22:57;;;;;;;4.10;2.70;;;;;;;22.07;100.00;96333.38;5043664;28;20084;-50
2022/07/30 00:25:25;;;;;;;3.83;2.63;;;;;;;21.67;100.00;96333.69;5045490;28;20091;-48
2022/07/30 00:27:54;;;;;;;3.60;2.83;;;;;;;21.96;100.00;96322.31;5032999;28;20095;-50
2022/07/30 00:30:22;;;;;;;4.90;2.88;;;;;;;22.04;100.00;96329.28;5046553;28;20064;-49
2022/07/30 00:32:51;;;;;;;5.25;2.50;;;;;;;21.90;100.00;96328.56;5042689;28;20081;-48
2022/07/30 00:35:21;;;;;;;6.55;2.80;;;;;;;21.70;100.00;96319.84;5045376;28;20072;-48
2022/07/30 00:37:49;;;;;;;5.40;2.80;;;;;;;21.95;100.00;96328.72;5047271;28;20080;-53
2022/07/30 00:40:18;;;;;;;6.10;2.67;;;;;;;21.75;100.00;96341.50;5044994;28;20440;-47
2022/07/30 00:42:47;;;;;;;4.68;2.70;;;;;;;21.54;100.00;96332.75;5027170;28;20072;-48
2022/07/30 00:45:17;;;;;;;3.47;2.67;;;;;;;21.70;100.00;96327.88;5026827;28;20068;-49
2022/07/30 00:47:45;;;;;;;4.13;2.80;;;;;;;21.97;100.00;96336.56;5037450;28;20865;-48
2022/07/30 00:50:14;;;;;;;6.32;2.55;;;;;;;21.75;100.00;96346.88;5042569;28;20077;-48
2022/07/30 00:52:46;;;;;;;3.00;2.50;;;;;;;21.92;100.00;96336.38;5044309;28;21248;-49
2022/07/30 00:55:15;;;;;;;4.07;2.60;;;;;;;21.87;100.00;96337.03;5044815;28;20072;-50
2022/07/30 00:57:44;;;;;;;4.75;2.80;;;;;;;21.92;100.00;96337.22;5040281;28;20076;-46
2022/07/30 01:00:15;;;;;;;3.97;2.67;;;;;;;22.14;100.00;96336.84;5046935;28;20068;-50
2022/07/30 01:02:44;;;;;;;3.42;2.70;;;;;;;22.15;100.00;96328.56;5043421;28;20071;-45
2022/07/30 01:05:13;;;;;;;6.82;2.55;;;;;;;21.94;100.00;96323.56;5041699;28;20072;-53
2022/07/30 01:07:41;;;;;;;4.22;2.65;;;;;;;21.97;100.00;96331.19;5044749;28;20060;-58
2022/07/30 01:10:14;;;;;;;6.70;3.00;;;;;;;22.09;100.00;96326.72;5031376;28;20068;-58
2022/07/30 01:12:44;;;;;;;7.05;2.75;;;;;;;22.10;100.00;96327.56;5041173;28;20065;-46
2022/07/30 01:15:12;;;;;;;4.85;2.75;;;;;;;22.01;100.00;96327.84;5043017;28;20077;-49
2022/07/30 01:17:41;;;;;;;3.17;2.60;;;;;;;21.72;100.00;96333.88;5043873;28;20049;-56
2022/07/30 01:20:13;;;;;;;4.22;2.55;;;;;;;21.92;100.00;96329.16;5040387;28;20083;-45
2022/07/30 01:22:51;;;;;;;4.57;2.72;;;;;;;21.84;100.00;96333.97;5042115;28;20080;-54
2022/07/30 01:25:28;;;;;;;3.05;2.53;;;;;;;21.87;100.00;96329.00;5044243;28;20072;-46
2022/07/30 01:28:00;;;;;;;8.00;3.00;;;;;;;21.42;100.00;96322.94;5041484;28;20549;-46
2022/07/30 01:30:31;;;;;;;4.20;2.45;;;;;;;21.67;100.00;96317.59;5042372;28;20080;-56
2022/07/30 01:33:03;;;;;;;4.53;2.53;;;;;;;21.43;100.00;96322.69;5041891;28;20099;-50
2022/07/30 01:35:33;;;;;;;3.53;2.50;;;;;;;21.53;100.00;96312.31;5043299;28;20068;-56
2022/07/30 01:38:04;;;;;;;4.65;2.78;;;;;;;21.07;100.00;96317.94;5043790;28;20107;-45
2022/07/30 01:40:33;;;;;;;4.47;2.80;;;;;;;21.33;100.00;96320.47;5040625;28;20555;-58
2022/07/30 01:43:03;;;;;;;6.65;3.00;;;;;;;21.35;100.00;96314.91;5037923;28;20075;-46
2022/07/30 01:45:33;;;;;;;4.72;2.80;;;;;;;21.25;100.00;96317.22;5044505;28;20084;-51
2022/07/30 01:48:12;;;;;;;6.20;2.88;;;;;;;21.37;100.00;96310.16;5039273;28;20072;-48
2022/07/30 01:50:44;;;;;;;3.50;2.80;;;;;;;21.45;100.00;96322.50;5042758;28;20623;-45
2022/07/30 01:53:15;;;;;;;7.35;2.85;;;;;;;21.64;100.00;96326.88;5041525;28;20080;-45
2022/07/30 01:55:44;;;;;;;5.25;3.00;;;;;;;21.47;100.00;96325.75;5041142;28;20077;-45
2022/07/30 01:58:14;;;;;;;4.45;2.85;;;;;;;21.41;100.00;96330.16;5043274;28;20080;-51
2022/07/30 02:00:43;;;;;;;4.40;2.80;;;;;;;21.26;100.00;96322.34;5040459;28;20111;-48
2022/07/30 02:03:12;;;;;;;4.35;2.78;;;;;;;21.13;100.00;96330.50;5041129;28;20510;-50
2022/07/30 02:05:41;;;;;;;5.30;2.70;;;;;;;21.52;100.00;96328.63;5043868;28;20080;-49
2022/07/30 02:08:13;;;;;;;4.88;2.70;;;;;;;21.76;100.00;96327.03;5040362;28;20831;-54
2022/07/30 02:10:44;;;;;;;5.75;3.08;;;;;;;21.47;100.00;96323.09;5040835;28;20464;-45
2022/07/30 02:13:16;;;;;;;4.90;2.78;;;;;;;21.16;100.00;96327.34;5042340;28;20079;-45
2022/07/30 02:15:50;;;;;;;3.72;2.63;;;;;;;21.47;100.00;96323.94;5043742;28;20484;-50
2022/07/30 02:18:23;;;;;;;5.93;3.00;;;;;;;21.49;100.00;96318.34;5039079;28;20077;-47
2022/07/30 02:20:56;;;;;;;8.90;2.80;;;;;;;21.44;100.00;96319.00;5040858;28;20064;-45
2022/07/30 02:23:26;;;;;;;4.93;2.80;;;;;;;21.30;100.00;96322.75;5042467;28;20084;-51
2022/07/30 02:25:57;;;;;;;5.70;2.72;;;;;;;21.20;100.00;96327.78;5042302;28;20084;-53
2022/07/30 02:28:27;;;;;;;6.18;2.67;;;;;;;21.28;100.00;96325.66;5044357;28;20080;-50
2022/07/30 02:31:00;;;;;;;7.68;3.40;;;;;;;21.21;100.00;96335.59;5042056;28;20076;-47
2022/07/30 02:33:38;;;;;;;5.55;3.10;;;;;;;21.17;100.00;96329.03;5040914;28;20095;-48
2022/07/30 02:36:16;;;;;;;8.68;3.33;;;;;;;21.41;100.00;96327.47;5043909;28;20088;-48
2022/07/30 02:38:46;;;;;;;7.32;3.10;;;;;;;21.07;100.00;96323.31;5040086;28;20091;-58
2022/07/30 02:41:15;;;;;;;5.70;2.97;;;;;;;21.24;100.00;96326.31;5042400;28;20085;-52
2022/07/30 02:43:46;;;;;;;5.50;3.00;;;;;;;21.18;100.00;96319.94;5040605;28;20542;-50
2022/07/30 02:46:14;;;;;;;;;;;;;;;21.25;100.00;96326.09;5042717;28;20111;-46
2022/07/30 02:48:43;;;;;;;10.40;3.20;;;;;;;21.01;100.00;96319.59;5043752;28;19964;-52
2022/07/30 02:51:12;;;;;;;3.70;3.13;;;;;;;20.85;100.00;96323.59;5039921;28;22236;-46
2022/07/30 02:53:43;;;;;;;7.40;3.40;;;;;;;20.56;100.00;96332.16;5041224;28;20085;-50
2022/07/30 02:56:14;;;;;;;6.80;3.33;;;;;;;20.68;100.00;96318.91;5041719;28;20526;-48
2022/07/30 02:58:45;;;;;;;6.20;3.30;;;;;;;21.11;100.00;96319.16;5041599;28;20081;-46
2022/07/30 03:01:15;;;;;;;9.25;3.55;;;;;;;20.89;100.00;96318.66;5041945;28;20540;-54
2022/07/30 03:03:45;;;;;;;6.68;3.67;;;;;;;20.93;100.00;96319.84;5042277;28;20091;-47
2022/07/30 03:06:14;;;;;;;7.57;3.22;;;;;;;20.48;100.00;96318.97;5039970;28;20541;-55
2022/07/30 03:08:44;;;;;;;11.47;3.83;;;;;;;20.88;100.00;96321.53;5043195;28;20072;-48
2022/07/30 03:11:13;;;;;;;9.90;3.72;;;;;;;20.88;100.00;96316.97;5041180;28;20063;-47
2022/07/30 03:13:41;;;;;;;6.38;3.60;;;;;;;;;;5041857;28;20085;-46
2022/07/30 03:16:12;;;;;;;6.95;3.85;;;;;;;21.31;100.00;96319.03;5042608;28;20471;-49
2022/07/30 03:18:41;;;;;;;7.07;3.40;;;;;;;20.93;100.00;96324.41;5033043;28;20142;-51
2022/07/30 03:21:10;;;;;;;7.18;3.50;;;;;;;21.10;100.00;96320.19;5042407;28;20088;-53
2022/07/30 03:23:40;;;;;;;4.40;3.22;;;;;;;20.66;100.00;96323.69;5042602;28;20076;-49
2022/07/30 03:26:09;;;;;;;5.28;3.85;;;;;;;21.20;100.00;96314.38;5044839;28;20581;-47
2022/07/30 03:28:39;;;;;;;3.97;3.40;;;;;;;20.97;100.00;96318.38;5045674;28;20077;-59
2022/07/30 03:31:09;;;;;;;4.00;3.60;;;;;;;20.77;100.00;96323.00;5036213;28;20096;-48
2022/07/30 03:33:40;;;;;;;4.35;3.85;;;;;;;20.90;100.00;96316.78;5041076;28;20088;-52
2022/07/30 03:36:10;;;;;;;7.05;3.83;;;;;;;20.69;100.00;96326.75;5024848;28;20077;-45
2022/07/30 03:38:40;;;;;;;4.20;3.80;;;;;;;20.36;100.00;96316.91;5044969;28;20072;-52
2022/07/30 03:41:08;;;;;;;4.47;3.83;;;;;;;20.52;100.00;96320.22;5030218;28;20064;-46
2022/07/30 03:43:38;;;;;;;6.75;3.90;;;;;;;20.44;100.00;96331.94;5042336;28;20505;-49
2022/07/30 03:46:07;;;;;;;5.78;4.13;;;;;;;20.68;100.00;96329.63;5043182;28;20471;-49
2022/07/30 03:48:36;;;;;;;5.05;3.85;;;;;;;20.74;100.00;96328.78;5049190;28;20105;-50
2022/07/30 03:51:08;;;;;;;4.68;4.13;;;;;;;20.59;100.00;96329.88;5038157;28;20080;-51
2022/07/30 03:53:38;;;;;;;6.10;3.83;;;;;;;20.82;100.00;96332.06;5046901;28;20076;-49
2022/07/30 03:56:07;;;;;;;5.05;4.32;;;;;;;20.23;100.00;96343.72;5049407;28;20088;-46
2022/07/30 03:58:37;;;;;;;5.03;4.15;;;;;;;20.42;100.00;96342.03;5049082;28;20142;-47
2022/07/30 04:01:05;;;;;;;4.88;4.05;;;;;;;20.50;100.00;96349.88;5043512;28;20077;-49
2022/07/30 04:03:34;;;;;;;7.15;4.63;;;;;;;20.44;100.00;96352.53;5043530;28;20076;-46
2022/07/30 04:06:02;;;;;;;6.50;4.03;;;;;;;20.76;100.00;96340.13;5045261;28;20087;-48
2022/07/30 04:08:32;;;;;;;7.13;4.78;;;;;;;20.29;100.00;96353.59;5046903;28;20092;-51
2022/07/30 04:11:01;;;;;;;6.82;4.03;;;;;;;20.33;100.00;96354.81;5037714;28;20107;-52
2022/07/30 04:13:29;;;;;;;7.57;4.18;;;;;;;20.09;100.00;96361.63;5048890;28;20571;-49
2022/07/30 04:16:01;;;;;;;7.47;4.45;;;;;;;19.98;100.00;96364.94;5032489;28;20189;-52
2022/07/30 04:18:51;;;;;;;5.22;4.18;;;;;;;20.02;100.00;96360.81;5047952;28;20091;-55
2022/07/30 04:21:21;;;;;;;5.45;4.22;;;;;;;20.00;100.00;96370.09;5049192;28;20114;-52
2022/07/30 04:23:51;;;;;;;6.00;4.05;;;;;;;19.64;100.00;96373.97;5047741;28;20077;-46
2022/07/30 04:26:34;;;;;;;5.78;4.43;;;;;;;20.28;100.00;96367.22;5045231;28;20573;-50
2022/07/30 04:29:04;;;;;;;5.72;4.18;;;;;;;19.99;100.00;96371.94;5044626;28;20065;-49
2022/07/30 04:31:34;;;;;;;5.20;4.28;;;;;;;20.15;100.00;96378.75;5043748;28;20549;-51
2022/07/30 04:34:08;;;;;;;8.02;4.45;;;;;;;20.45;100.00;96378.31;5045598;28;20487;-50
2022/07/30 04:36:37;;;;;;;5.18;3.92;;;;;;;20.07;100.00;96382.47;5046122;28;20481;-54
2022/07/30 04:39:07;;;;;;;9.48;4.50;;;;;;;20.01;100.00;96380.59;5046214;28;20088;-51
2022/07/30 04:41:35;;;;;;;6.20;4.13;;;;;;;20.31;100.00;96388.22;5047019;28;20084;-46
2022/07/30 04:44:18;;;;;;;5.70;4.22;;;;;;;20.82;100.00;96374.13;5044678;28;20069;-47
2022/07/30 04:46:46;;;;;;;6.75;3.85;;;;;;;20.41;100.00;96391.31;5041385;28;20099;-45
2022/07/30 04:49:16;;;;;;;5.78;4.15;;;;;;;20.81;100.00;96380.50;5046261;28;20093;-48
2022/07/30 04:51:45;;;;;;;4.68;4.28;;;;;;;21.08;100.00;96383.94;5048634;28;20077;-50
2022/07/30 04:54:16;;;;;;;5.00;3.90;;;;;;;21.18;100.00;96381.63;5048341;28;20087;-49
2022/07/30 04:56:46;;;;;;;8.13;4.63;;;;;;;21.48;100.00;96378.41;5041367;28;20080;-51
2022/07/30 04:59:24;;;;;;;4.95;4.25;;;;;;;21.78;100.00;96392.03;5045021;28;20084;-62
2022/07/30 05:01:53;;;;;;;6.85;4.20;;;;;;;22.09;100.00;96385.00;5046402;28;20077;-52
2022/07/30 05:04:22;;;;;;;8.10;4.47;;;;;;;22.32;100.00;96374.50;5044196;28;20708;-50
2022/07/30 05:06:51;;;;;;;4.50;3.88;;;;;;;22.65;100.00;96376.88;5045315;28;20106;-47
2022/07/30 05:09:22;;;;;;;5.20;4.22;;;;;;;23.36;100.00;96370.03;5045334;28;20096;-51
2022/07/30 05:11:51;;;;;;;4.90;4.00;;;;;;;22.98;100.00;96370.31;5043633;28;20099;-55
2022/07/30 05:14:20;;;;;;;5.55;3.78;;;;;;;23.23;100.00;96375.63;5047119;28;20559;-53
2022/07/30 05:16:48;;;;;;;6.47;3.78;;;;;;;23.36;100.00;96378.13;5046695;28;20076;-46
2022/07/30 05:19:17;;;;;;;7.30;3.80;;;;;;;23.62;100.00;96384.22;5045903;28;20041;-52
2022/07/30 05:21:46;;;;;;;4.57;3.40;;;;;;;24.22;100.00;96383.31;5046531;28;20084;-49
2022/07/30 05:24:14;;;;;;;4.97;3.42;;;;;;;24.10;100.00;96394.91;5045970;28;20467;-48
2022/07/30 05:26:44;;;;;;;4.07;3.70;;;;;;;23.85;100.00;96396.97;5044186;28;20080;-47
2022/07/30 05:29:13;;;;;;;5.78;3.58;;;;;;;23.77;100.00;96400.78;5048433;28;20084;-50
2022/07/30 05:31:47;;;;;;;5.80;3.38;;;;;;;22.59;100.00;96398.44;5048851;28;20107;-46
2022/07/30 05:34:16;;;;;;;3.60;3.00;;;;;;;23.21;100.00;96399.22;5049005;28;20084;-47
2022/07/30 05:36:45;;;;;;;5.03;3.22;;;;;;;22.37;100.00;96398.84;5048764;28;20084;-52
2022/07/30 05:39:15;;;;;;;5.55;3.00;;;;;;;22.18;100.00;96397.97;5048511;28;20095;-51
2022/07/30 05:41:44;;;;;;;5.00;3.50;;;;;;;22.63;100.00;96405.84;5046381;28;20085;-49
2022/07/30 05:44:13;;;;;;;4.78;3.53;;;;;;;21.92;100.00;96395.44;5045806;28;20069;-54
2022/07/30 05:46:41;;;;;;;7.32;3.50;;;;;;;22.24;100.00;96396.28;5048802;28;20076;-53
2022/07/30 05:49:10;;;;;;;6.72;4.13;;;;;;;21.74;100.00;96398.88;5048556;28;20088;-54
2022/07/30 05:51:39;;;;;;;5.03;3.50;;;;;;;22.26;100.00;96404.94;5048331;28;20088;-52
2022/07/30 05:54:08;;;;;;;4.82;3.72;;;;;;;22.04;100.00;96407.97;5048808;28;20068;-53
2022/07/30 05:56:37;;;;;;;5.35;3.47;;;;;;;21.98;100.00;96410.69;5042253;28;20134;-49
2022/07/30 05:59:07;;;;;;;5.82;3.55;;;;;;;21.50;100.00;96405.84;5048061;28;20136;-48
2022/07/30 06:01:35;;;;;;;5.65;4.05;;;;;;;22.49;100.00;96407.00;5041667;28;20087;-51
2022/07/30 06:04:04;;;;;;;6.70;4.32;;;;;;;22.30;100.00;96418.75;5048190;28;20589;-48
2022/07/30 06:06:32;;;;;;;5.03;4.32;;;;;;;22.50;100.00;96424.75;5048840;28;20085;-52
2022/07/30 06:09:01;;;;;;;6.63;3.58;;;;;;;23.33;100.00;96416.28;5042932;28;20471;-50
2022/07/30 06:11:29;;;;;;;4.88;3.67;;;;;;;23.17;100.00;96419.56;5048552;28;20072;-47
2022/07/30 06:13:57;;;;;;;6.90;4.10;;;;;;;23.38;100.00;96423.66;5047882;28;20084;-51
2022/07/30 06:16:27;;;;;;;4.78;3.63;;;;;;;22.29;100.00;96420.59;5048467;28;20095;-46
2022/07/30 06:18:56;;;;;;;5.95;3.95;;;;;;;22.70;100.00;96430.78;5048132;28;20085;-46
2022/07/30 06:21:24;;;;;;;4.38;3.70;;;;;;;22.81;100.00;96431.91;5047455;28;20451;-48
2022/07/30 06:23:52;;;;;;;4.85;3.67;;;;;;;22.39;100.00;96437.06;5047115;28;20087;-47
2022/07/30 06:26:21;;;;;;;7.65;4.20;;;;;;;22.78;100.00;96437.75;5047339;28;20088;-47
2022/07/30 06:28:49;;;;;;;5.45;4.32;;;;;;;23.06;100.00;96428.41;5048248;28;20080;-52
2022/07/30 06:31:18;;;;;;;5.68;4.10;;;;;;;22.65;100.00;96432.50;5043897;28;20084;-55
2022/07/30 06:33:47;;;;;;;5.32;4.10;;;;;;;22.56;100.00;96436.50;5047693;28;20085;-48
2022/07/30 06:36:16;;;;;;;7.82;4.80;;;;;;;22.15;100.00;96443.25;5046792;28;20088;-56
2022/07/30 06:38:44;;;;;;;4.47;4.07;;;;;;;22.40;100.00;96435.19;5046836;28;20085;-47
2022/07/30 06:41:14;;;;;;;7.07;4.88;;;;;;;22.49;100.00;96442.75;5041486;28;20469;-48
2022/07/30 06:43:42;;;;;;;5.80;4.47;;;;;;;22.32;100.00;96440.84;5047737;28;20562;-51
2022/07/30 06:46:11;;;;;;;7.13;4.80;;;;;;;21.96;100.00;96448.53;5048192;28;20088;-48
2022/07/30 06:48:41;;;;;;;7.10;4.80;;;;;;;22.43;100.00;96451.69;5048236;28;20101;-48
2022/07/30 06:51:10;;;;;;;6.57;5.00;;;;;;;22.73;100.00;96457.22;5047820;28;20471;-48
2022/07/30 06:53:39;;;;;;;6.68;5.05;;;;;;;23.04;100.00;96452.81;5048030;28;20076;-51
2022/07/30 06:56:10;;;;;;;5.90;5.20;;;;;;;23.37;100.00;96457.00;5034431;28;20083;-57
2022/07/30 06:58:39;;;;;;;7.13;4.75;;;;;;;22.91;100.00;96445.66;5052014;28;20080;-47
2022/07/30 07:01:07;;;;;;;10.80;5.20;;;;;;;23.19;100.00;96455.97;5051284;28;20496;-50
2022/07/30 07:03:39;;;;;;;7.18;5.00;;;;;;;23.86;100.00;96457.84;5047974;28;20076;-48
2022/07/30 07:06:08;;;;;;;5.63;5.10;;;;;;;24.35;100.00;96459.38;5051751;28;20092;-51
2022/07/30 07:08:38;;;;;;;6.40;5.22;;;;;;;24.05;100.00;96464.00;5052121;28;20076;-52
2022/07/30 07:11:06;;;;;;;6.70;5.53;;;;;;;24.39;100.00;96460.56;5051861;28;20084;-49
2022/07/30 07:13:35;;;;;;;6.68;5.22;;;;;;;23.93;100.00;96456.69;5051189;28;20092;-51
2022/07/30 07:16:04;;;;;;;8.82;5.20;;;;;;;24.09;100.00;96462.50;5051851;28;20547;-42
2022/07/30 07:18:32;;;;;;;8.40;4.78;;;;;;;24.06;100.00;96461.09;5051360;28;20080;-57
2022/07/30 07:21:01;;;;;;;7.05;4.90;;;;;;;24.43;100.00;96462.81;5050160;28;20081;-50
2022/07/30 07:23:29;;;;;;;8.38;5.07;;;;;;;24.59;100.00;96460.28;5051158;28;20072;-50
2022/07/30 07:26:11;;;;;;;6.90;5.00;;;;;;;24.14;100.00;96459.94;5048846;28;20560;-54
2022/07/30 07:28:40;;;;;;;6.65;4.95;;;;;;;23.79;100.00;96460.63;5047536;28;20617;-48
2022/07/30 07:31:09;;;;;;;5.82;4.80;;;;;;;24.42;100.00;96464.69;5050635;28;20077;-45
2022/07/30 07:33:39;;;;;;;5.30;4.80;;;;;;;24.10;100.00;96461.44;5050722;28;20531;-52
2022/07/30 07:36:07;;;;;;;7.28;5.70;;;;;;;24.36;100.00;96460.19;5041053;28;20088;-50
2022/07/30 07:38:36;;;;;;;6.20;5.40;;;;;;;24.57;100.00;96459.69;5051422;28;20081;-53
2022/07/30 07:41:05;;;;;;;9.55;6.72;;;;;;;24.43;100.00;96455.56;5050646;28;20096;-52
2022/07/30 07:43:35;;;;;;;7.05;5.97;;;;;;;24.57;100.00;96454.31;5050672;28;20084;-45
2022/07/30 07:46:03;;;;;;;7.88;6.40;;;;;;;24.63;100.00;96457.91;5050909;28;20065;-46
2022/07/30 07:48:32;;;;;;;6.78;5.85;;;;;;;24.11;100.00;96457.69;5051418;28;20484;-46
2022/07/30 07:51:00;;;;;;;7.50;5.35;;;;;;;24.70;100.00;96460.50;5050861;28;20072;-50
2022/07/30 07:53:29;;;;;;;8.73;5.75;;;;;;;24.02;100.00;96451.81;5050586;28;20076;-54
2022/07/30 07:55:57;;;;;;;9.60;6.45;;;;;;;24.93;100.00;96449.72;5051221;28;20092;-49
2022/07/30 07:58:26;;;;;;;7.72;5.75;;;;;;;25.13;100.00;96452.09;5050254;28;20092;-46
2022/07/30 08:00:56;;;;;;;8.98;5.78;;;;;;;25.15;100.00;96447.25;5050865;28;20088;-45
2022/07/30 08:03:24;;;;;;;7.43;6.60;;;;;;;25.39;100.00;96439.94;5050090;28;25035;-50
2022/07/30 08:05:52;;;;;;;6.80;6.10;;;;;;;25.39;100.00;96448.03;5049443;28;20087;-47
2022/07/30 08:08:35;;;;;;;7.32;6.57;;;;;;;25.79;100.00;96448.03;5050688;28;20096;-52
2022/07/30 08:11:04;;;;;;;;;;;;;;;25.15;100.00;96443.75;5051409;28;20520;-54
2022/07/30 08:13:32;;;;;;;8.88;6.28;;;;;;;25.16;100.00;96454.31;5050400;28;20375;-48
2022/07/30 08:16:21;;;;;;;10.02;6.55;;;;;;;26.39;100.00;96441.25;5049236;28;20079;-46
2022/07/30 08:18:50;;;;;;;10.52;7.53;;;;;;;25.26;100.00;96465.31;5050578;28;20092;-53
2022/07/30 08:21:18;;;;;;;8.77;7.35;;;;;;;26.28;100.00;96450.25;5049933;28;20088;-46
2022/07/30 08:23:46;;;;;;;7.68;5.95;;;;;;;26.56;100.00;96454.00;5047513;28;20091;-54
2022/07/30 08:26:15;;;;;;;7.95;6.35;;;;;;;26.25;100.00;96451.56;5043573;28;20554;-53
2022/07/30 08:28:44;;;;;;;10.32;6.88;;;;;;;25.80;100.00;96451.56;5045995;28;20448;-51
2022/07/30 08:31:13;;;;;;;9.63;6.68;;;;;;;26.20;100.00;96456.09;5047176;28;20088;-52
2022/07/30 08:33:42;;;;;;;9.55;7.10;;;;;;;25.90;100.00;96448.25;5046250;28;20092;-49
2022/07/30 08:36:11;;;;;;;8.20;6.53;;;;;;;25.82;100.00;96449.47;5050521;28;20081;-53
2022/07/30 08:38:39;;;;;;;9.88;6.88;;;;;;;26.28;100.00;96452.97;5050111;28;20099;-55
2022/07/30 08:41:08;;;;;;;9.75;7.07;;;;;;;25.70;100.00;96443.22;5049808;28;20155;-50
2022/07/30 08:43:37;;;;;;;7.65;6.60;;;;;;;26.08;100.00;96456.13;5049572;28;20454;-51
2022/07/30 08:46:09;;;;;;;8.35;6.28;;;;;;;25.96;100.00;96449.97;5050062;28;20464;-52
2022/07/30 08:48:38;;;;;;;9.95;7.82;;;;;;;26.57;100.00;96450.25;5050273;28;20102;-49
2022/07/30 08:51:08;;;;;;;8.38;7.05;;;;;;;25.92;100.00;96448.84;5049686;28;20103;-50
2022/07/30 08:53:36;;;;;;;8.00;6.40;;;;;;;25.78;100.00;96446.38;5049580;28;20087;-52
2022/07/30 08:56:07;;;;;;;8.30;6.25;;;;;;;26.58;100.00;96452.69;5050039;28;20091;-52
2022/07/30 08:58:36;;;;;;;9.02;7.00;;;;;;;26.19;100.00;96452.56;5041026;28;20107;-48
2022/07/30 09:01:05;;;;;;;7.28;6.47;;;;;;;26.10;100.00;96459.41;5047831;28;20076;-45
2022/07/30 09:03:34;;;;;;;8.60;7.30;;;;;;;26.87;100.00;96460.69;5042099;28;20084;-49
2022/07/30 09:06:12;;;;;;;8.52;6.25;;;;;;;26.79;100.00;96467.34;5049884;28;20069;-51
2022/07/30 09:08:41;;;;;;;7.03;6.32;;;;;;;26.62;100.00;96459.25;5043534;28;20583;-48
2022/07/30 09:11:09;;;;;;;7.53;6.25;;;;;;;26.72;100.00;96461.28;5036231;28;20080;-55
2022/07/30 09:13:40;;;;;;;8.07;6.78;;;;;;;26.51;100.00;96463.69;5047242;28;20080;-59
2022/07/30 09:16:19;;;;;;;8.95;6.80;;;;;;;27.05;100.00;96459.59;5049521;28;20075;-47
2022/07/30 09:18:48;;;;;;;10.27;6.82;;;;;;;26.58;100.00;96454.59;5048081;28;20081;-46
2022/07/30 09:21:22;;;;;;;6.60;5.88;;;;;;;26.90;100.00;96460.19;5037449;28;20092;-49
2022/07/30 09:23:57;;;;;;;8.30;5.93;;;;;;;26.52;100.00;96464.50;5045648;28;20092;-54
2022/07/30 09:26:26;;;;;;;6.22;5.53;;;;;;;26.35;100.00;96456.34;5048827;28;20561;-53
2022/07/30 09:28:55;;;;;;;7.40;6.15;;;;;;;25.95;100.00;96448.34;5041691;28;20066;-49
2022/07/30 09:31:23;;;;;;;8.55;5.90;;;;;;;26.40;100.00;96450.22;5046753;28;20084;-48
2022/07/30 09:33:52;;;;;;;7.90;5.95;;;;;;;27.69;100.00;96449.91;5049097;28;20469;-48
2022/07/30 09:36:22;;;;;;;7.47;5.65;;;;;;;27.85;100.00;96450.13;5049492;28;20236;-47
2022/07/30 09:38:51;;;;;;;6.95;5.75;;;;;;;27.45;100.00;96460.16;5049075;28;20163;-49
2022/07/30 09:41:34;;;;;;;7.05;5.80;;;;;;;28.11;100.00;96443.88;5048621;28;20088;-51
2022/07/30 09:44:07;;;;;;;8.10;5.07;;;;;;;28.06;100.00;96449.25;5048852;28;20092;-46
2022/07/30 09:46:43;;;;;;;5.97;5.38;;;;;;;27.24;100.00;96450.16;5048956;28;20464;-54
2022/07/30 09:49:16;;;;;;;6.53;4.85;;;;;;;26.73;100.00;96449.41;5048659;28;20080;-49
2022/07/30 09:51:46;;;;;;;5.85;4.55;;;;;;;27.76;100.00;96447.03;5048591;28;20080;-45
2022/07/30 09:54:25;;;;;;;7.60;4.13;;;;;;;26.78;100.00;96454.09;5048754;28;20080;-50
2022/07/30 09:57:06;;;;;;;7.47;4.57;;;;;;;28.47;86.04;96452.34;5048983;28;20109;-58
2022/07/30 09:59:56;;;;;;;9.13;5.22;;;;;;;27.69;91.21;96449.91;5048115;28;21128;-48
2022/07/30 10:02:31;;;;;;;7.82;4.65;;;;;;;27.83;91.39;96452.25;5049384;28;20080;-49
2022/07/30 10:05:18;;;;;;;5.90;4.70;;;;;;;28.04;95.55;96445.97;5048611;28;20092;-48
2022/07/30 10:07:50;;;;;;;5.25;4.18;;;;;;;27.28;98.73;96448.59;5048613;28;20598;-52
2022/07/30 10:10:22;;;;;;;6.07;4.18;;;;;;;27.86;88.35;96446.31;5046630;28;20084;-51
2022/07/30 10:12:55;;;;;;;6.43;4.00;;;;;;;27.37;87.44;96436.25;5049757;28;20092;-56
2022/07/30 10:15:25;;;;;;;5.53;3.90;;;;;;;27.01;90.44;96447.63;5043844;28;20089;-52
2022/07/30 10:17:55;;;;;;;5.88;4.20;;;;;;;28.42;71.76;96441.44;5046265;28;20085;-52
2022/07/30 10:20:25;;;;;;;4.78;4.13;;;;;;;27.01;90.08;96447.63;5048332;28;20128;-48
2022/07/30 10:22:55;;;;;;;6.95;5.10;;;;;;;28.19;79.27;96442.59;5049367;28;20835;-57
2022/07/30 10:25:24;;;;;;;5.95;4.10;;;;;;;28.19;85.31;96442.59;5046087;28;20124;-55
2022/07/30 10:27:55;;;;;;;7.28;4.60;;;;;;;28.34;94.60;96444.63;5046128;28;20075;-50
2022/07/30 10:30:26;;;;;;;5.15;3.83;;;;;;;28.80;76.97;96443.13;5051780;28;20474;-50
2022/07/30 10:32:57;;;;;;;4.50;3.22;;;;;;;28.67;68.90;96442.75;5052265;28;20084;-55
2022/07/30 10:35:29;;;;;;;4.30;3.33;;;;;;;28.24;69.56;96403.84;5054183;28;20044;-51
2022/07/30 10:38:11;;;;;;;5.80;3.40;;;;;;;28.27;73.99;96436.69;5046503;28;20083;-49
2022/07/30 10:40:47;;;;;;;5.57;3.53;;;;;;;28.77;63.49;96442.81;5049562;28;20543;-49
2022/07/30 10:43:51;;;;;;;4.78;3.13;;;;;;;28.32;59.56;96449.47;5052261;28;20084;-49
2022/07/30 10:46:32;;;;;;;5.43;3.15;;;;;;;28.71;61.98;96446.56;5052197;28;20306;-50
2022/07/30 10:49:08;;;;;;;3.63;2.92;;;;;;;28.22;63.54;96438.53;5052010;28;20110;-51
2022/07/30 10:51:47;;;;;;;3.28;2.75;;;;;;;27.96;63.71;96437.47;5052234;28;20111;-49
2022/07/30 10:54:46;;;;;;;;;;;;;;;28.16;68.01;96430.34;5052792;28;20080;-50
2022/07/30 10:57:17;;;;;;;6.40;2.83;;;;;;;28.35;63.75;96436.22;4970697;28;19965;-59
2022/07/30 11:00:13;;;;;;;4.43;3.20;;;;;;;27.59;60.79;96435.41;5043141;28;20092;-54
2022/07/30 11:03:16;;;;;;;3.88;2.90;;;;;;;27.58;60.77;96436.50;5052013;28;20060;-52
2022/07/30 11:05:47;;;;;;;4.32;2.88;;;;;;;27.83;56.36;96427.84;5051224;28;20543;-56
2022/07/30 11:08:36;;;;;;;5.55;2.60;;;;;;;27.97;58.28;96426.38;5051880;28;20085;-53
2022/07/30 11:11:45;;;;;;;5.53;2.85;;;;;;;28.38;56.13;96432.16;5046650;28;20100;-55
2022/07/30 11:14:58;;;;;;;3.20;2.20;;;;;;;28.12;52.68;96423.81;5051783;28;20072;-53
2022/07/30 11:18:04;;;;;;;5.22;2.63;;;;;;;28.46;53.40;96437.16;5046934;28;20095;-52
2022/07/30 11:20:40;;;;;;;3.88;2.50;;;;;;;28.23;50.62;96426.63;5041007;28;20452;-52
2022/07/30 11:23:38;;;;;;;3.88;2.58;;;;;;;28.44;51.82;96411.38;5049576;28;20092;-48
2022/07/30 11:26:07;;;;;;;5.35;2.00;;;;;;;28.70;52.66;96425.91;5050193;28;20077;-52
2022/07/30 11:28:43;;;;;;;3.80;2.10;;;;;;;29.38;48.64;96424.16;5051486;28;20155;-52
2022/07/30 11:31:42;;;;;;;;;;;;;;;29.42;47.86;96421.75;5051342;28;20555;-52
2022/07/30 11:34:28;;;;;;;3.60;2.38;;;;;;;28.88;47.20;96438.28;4970175;28;19962;-53
2022/07/30 11:37:18;;;;;;;3.00;2.33;;;;;;;27.89;48.00;96438.50;5043885;28;20088;-55
2022/07/30 11:40:12;;;;;;;5.75;2.30;;;;;;;28.47;47.88;96457.78;5051059;28;20081;-49
2022/07/30 11:42:42;;;;;;;5.40;2.85;;;;;;;28.21;55.14;96461.31;5051040;28;20445;-52
2022/07/30 11:45:28;;;;;;;3.95;3.15;;;;;;;27.97;61.05;96444.53;5050978;28;20084;-52
2022/07/30 11:47:58;;;;;;;4.15;2.78;;;;;;;28.55;57.48;96440.22;5044531;28;20079;-59